Time;durP1;ratioP1;P1;durP2;ratioP2;P2;SDS_P1;SDS_P2;PMS_P1;PMS_P2;Temp;Humidity;BMP_temperature;BMP_pressure;BME280_temperature;BME280_humidity;BME280_pressure;Samples;Min_cycle;Max_cycle;Signal;HPM_P1;HPM_P2
2022/05/03 00:00:00;;;;;;;4.93;3.03;;;;;;;9.69;83.97;94658.97;5101159;28;20635;-77
2022/05/03 00:02:38;;;;;;;7.80;3.27;;;;;;;9.46;84.40;94638.47;5110940;28;20192;-77
2022/05/03 00:05:30;;;;;;;4.80;2.67;;;;;;;9.56;84.88;94651.97;5093804;28;20558;-77
2022/05/03 00:08:04;;;;;;;4.33;2.37;;;;;;;9.59;84.04;94653.41;5074520;28;20190;-77
2022/05/03 00:10:50;;;;;;;3.37;2.97;;;;;;;9.55;83.04;94653.00;5094530;28;20204;-77
2022/05/03 00:13:19;;;;;;;4.20;2.40;;;;;;;9.43;83.81;94639.69;5092022;28;20207;-77
2022/05/03 00:15:46;;;;;;;3.60;3.10;;;;;;;9.29;83.66;94617.13;5098487;28;20200;-77
2022/05/03 00:18:11;;;;;;;4.30;2.80;;;;;;;9.51;84.10;94648.38;5100505;28;20173;-77
2022/05/03 00:20:37;;;;;;;2.27;2.07;;;;;;;9.48;83.54;94654.03;5091829;28;20189;-77
2022/05/03 00:23:03;;;;;;;3.43;2.50;;;;;;;9.35;83.62;94620.75;5104085;28;20231;-78
2022/05/03 00:25:30;;;;;;;3.70;2.67;;;;;;;9.49;83.77;94634.66;5091710;28;20181;-78
2022/05/03 00:27:56;;;;;;;4.90;2.60;;;;;;;9.55;82.79;94641.69;5098599;28;20181;-78
2022/05/03 00:30:21;;;;;;;3.30;2.23;;;;;;;9.46;83.19;94641.09;5097795;28;20228;-77
2022/05/03 00:32:47;;;;;;;3.57;2.53;;;;;;;9.44;84.23;94643.94;5106693;28;20600;-77
2022/05/03 00:35:15;;;;;;;4.53;2.97;;;;;;;9.37;84.52;94645.00;5100638;28;20229;-77
2022/05/03 00:37:41;;;;;;;3.23;2.67;;;;;;;9.46;85.60;94641.09;5103300;28;20185;-77
2022/05/03 00:40:10;;;;;;;4.10;2.83;;;;;;;9.42;85.59;94647.81;5101177;28;20256;-77
2022/05/03 00:42:49;;;;;;;4.83;2.87;;;;;;;9.36;86.44;94641.56;5094982;28;20204;-77
2022/05/03 00:45:35;;;;;;;6.10;3.20;;;;;;;9.38;86.99;94642.16;5102340;28;20865;-77
2022/05/03 00:48:23;;;;;;;5.43;3.47;;;;;;;9.31;87.05;94636.13;5094974;28;20207;-77
2022/05/03 00:51:08;;;;;;;5.57;3.10;;;;;;;9.36;86.52;94644.19;5096735;28;20207;-78
2022/05/03 00:53:42;;;;;;;3.53;3.10;;;;;;;9.36;87.51;94646.81;5100716;28;20186;-77
2022/05/03 00:56:49;;;;;;;3.93;3.53;;;;;;;9.37;87.38;94642.34;5104611;28;20561;-78
2022/05/03 00:59:17;;;;;;;4.67;2.80;;;;;;;9.41;85.98;94649.63;5060651;28;20238;-77
2022/05/03 01:01:53;;;;;;;3.30;2.50;;;;;;;9.23;87.14;94639.00;5098926;28;20197;-78
2022/05/03 01:04:26;;;;;;;3.93;3.47;;;;;;;9.21;87.97;94638.38;5101164;28;20173;-78
2022/05/03 01:07:19;;;;;;;3.20;2.90;;;;;;;9.21;89.03;94645.47;5100164;28;20248;-78
2022/05/03 01:10:05;;;;;;;3.17;2.87;;;;;;;9.14;88.18;94636.81;5100472;28;20184;-78
2022/05/03 01:12:52;;;;;;;3.70;2.97;;;;;;;9.02;87.25;94607.75;5094581;28;20166;-78
2022/05/03 01:15:22;;;;;;;3.50;3.07;;;;;;;9.18;88.24;94630.91;5096341;28;20181;-78
2022/05/03 01:18:18;;;;;;;4.70;2.77;;;;;;;9.19;87.95;94624.66;5108251;28;20198;-78
2022/05/03 01:20:49;;;;;;;4.07;3.10;;;;;;;9.06;88.30;94620.25;5100396;28;20189;-78
2022/05/03 01:23:38;;;;;;;4.90;3.27;;;;;;;9.04;87.75;94626.72;5104239;28;20675;-78
2022/05/03 01:26:26;;;;;;;4.40;2.73;;;;;;;9.04;87.71;94624.91;5095450;28;20690;-79
2022/05/03 01:29:20;;;;;;;2.90;2.60;;;;;;;8.79;88.03;94594.28;5101387;28;20177;-78
2022/05/03 01:31:47;;;;;;;3.77;2.27;;;;;;;8.98;87.23;94625.75;5098843;28;20220;-78
2022/05/03 01:34:18;;;;;;;3.27;2.97;;;;;;;9.07;87.38;94615.81;5103317;28;20611;-77
2022/05/03 01:37:08;;;;;;;5.30;2.90;;;;;;;9.14;87.52;94616.59;5099309;28;20181;-78
2022/05/03 01:40:01;;;;;;;3.83;2.80;;;;;;;9.18;86.71;94616.97;5105363;28;20713;-78
2022/05/03 01:42:45;;;;;;;3.33;2.80;;;;;;;9.16;86.52;94606.69;5098233;28;20202;-78
2022/05/03 01:45:11;;;;;;;5.70;2.80;;;;;;;9.02;86.90;94598.03;5100026;28;20189;-77
2022/05/03 01:48:18;;;;;;;3.30;2.83;;;;;;;9.00;87.68;94605.31;5111052;28;20173;-78
2022/05/03 01:51:19;;;;;;;2.77;2.50;;;;;;;9.00;87.76;94605.31;5088013;28;20199;-78
2022/05/03 01:53:58;;;;;;;3.70;2.80;;;;;;;9.11;88.09;94600.44;5103332;28;20260;-78
2022/05/03 01:56:42;;;;;;;2.83;2.43;;;;;;;9.13;86.04;94604.47;5098714;28;20189;-78
2022/05/03 01:59:39;;;;;;;3.13;2.80;;;;;;;9.09;87.27;94598.03;5104379;28;20202;-78
2022/05/03 02:02:27;;;;;;;3.07;2.77;;;;;;;8.95;88.07;94599.09;5111057;28;20742;-77
2022/05/03 02:05:15;;;;;;;3.70;3.03;;;;;;;9.06;87.44;94594.00;5103920;28;20181;-78
2022/05/03 02:07:43;;;;;;;3.00;2.67;;;;;;;9.19;86.43;94593.13;5107140;28;20206;-78
2022/05/03 02:10:25;;;;;;;3.33;2.70;;;;;;;9.26;86.28;94609.66;5103217;28;20633;-78
2022/05/03 02:12:53;;;;;;;3.27;2.97;;;;;;;9.17;85.75;94571.53;5105096;28;20260;-78
2022/05/03 02:15:38;;;;;;;3.77;3.27;;;;;;;9.36;85.31;94596.91;5102948;27;20181;-78
2022/05/03 02:18:09;;;;;;;4.10;3.00;;;;;;;9.21;84.78;94598.19;5109092;28;20212;-78
2022/05/03 02:20:35;;;;;;;5.57;3.07;;;;;;;9.14;85.77;94603.47;5110027;28;20530;-78
2022/05/03 02:23:10;;;;;;;3.93;3.10;;;;;;;9.16;86.36;94601.44;5099119;28;20224;-78
2022/05/03 02:26:09;;;;;;;3.30;2.93;;;;;;;9.11;86.10;94595.19;5100986;28;20238;-78
2022/05/03 02:28:42;;;;;;;5.13;3.00;;;;;;;8.98;86.54;94588.19;5101952;28;20187;-78
2022/05/03 02:31:12;;;;;;;3.57;3.10;;;;;;;9.12;86.77;94597.63;5096966;28;20221;-78
2022/05/03 02:33:46;;;;;;;4.97;3.40;;;;;;;9.16;87.56;94585.69;5105947;28;20205;-78
2022/05/03 02:36:15;;;;;;;3.73;3.17;;;;;;;9.32;85.92;94589.66;5095268;28;20189;-78
2022/05/03 02:38:55;;;;;;;4.43;3.47;;;;;;;9.34;85.01;94585.78;5106961;28;20197;-77
2022/05/03 02:41:22;;;;;;;3.73;3.40;;;;;;;9.35;84.05;94584.78;5094631;28;20216;-77
2022/05/03 02:43:50;;;;;;;4.43;3.37;;;;;;;9.30;84.80;94581.19;5094773;28;20186;-78
2022/05/03 02:46:21;;;;;;;4.47;3.10;;;;;;;9.18;84.82;94591.53;5101053;28;20181;-77
2022/05/03 02:48:59;;;;;;;3.90;3.27;;;;;;;9.24;86.10;94585.47;5105067;28;20653;-77
2022/05/03 02:51:35;;;;;;;4.27;3.43;;;;;;;9.13;85.42;94590.53;5098694;28;20182;-77
2022/05/03 02:54:23;;;;;;;4.80;3.13;;;;;;;9.17;86.35;94591.75;5105435;28;20180;-77
2022/05/03 02:56:55;;;;;;;5.40;3.20;;;;;;;9.30;86.08;94583.81;5101667;27;20174;-77
2022/05/03 03:03:05;;;;;;;4.30;3.60;;;;;;;9.34;84.89;94585.78;5096964;28;20266;-77
2022/05/03 03:05:30;;;;;;;3.97;3.13;;;;;;;9.46;84.92;94594.63;5091923;28;20643;-77
2022/05/03 03:08:03;;;;;;;4.00;3.43;;;;;;;9.44;84.19;94591.41;5104925;28;20205;-79
2022/05/03 03:10:38;;;;;;;4.17;3.13;;;;;;;9.39;83.99;94590.44;5100575;28;20285;-79
2022/05/03 03:13:32;;;;;;;5.63;3.10;;;;;;;9.37;82.50;94580.13;5103183;28;20184;-78
2022/05/03 03:15:58;;;;;;;6.37;3.93;;;;;;;9.15;82.94;94557.81;5092297;28;20702;-78
2022/05/03 03:18:25;;;;;;;3.43;3.10;;;;;;;9.15;83.35;94575.41;5102163;28;20178;-78
2022/05/03 03:20:56;;;;;;;4.10;3.10;;;;;;;9.12;83.64;94581.84;5099453;28;20186;-78
2022/05/03 03:23:28;;;;;;;5.30;3.20;;;;;;;9.26;82.81;94587.84;5107824;28;20636;-78
2022/05/03 03:25:54;;;;;;;4.07;3.17;;;;;;;9.15;81.78;94594.59;5103228;28;20206;-78
2022/05/03 03:28:22;;;;;;;10.13;3.40;;;;;;;9.18;83.07;94590.72;5102790;28;20173;-78
2022/05/03 03:30:52;;;;;;;3.27;2.77;;;;;;;9.21;82.62;94599.00;5106137;28;20994;-78
2022/05/03 03:33:19;;;;;;;7.27;3.13;;;;;;;9.21;83.32;94593.75;5101281;28;20185;-78
2022/05/03 03:35:46;;;;;;;4.37;2.60;;;;;;;9.35;82.93;94595.28;5100623;28;20178;-78
2022/05/03 03:38:15;;;;;;;4.50;3.20;;;;;;;9.36;82.50;94589.00;5099934;28;20174;-78
2022/05/03 03:40:45;;;;;;;3.83;3.37;;;;;;;9.32;81.70;94590.47;5103871;28;20190;-78
2022/05/03 03:43:11;;;;;;;5.03;3.87;;;;;;;9.31;82.69;94582.78;5100447;28;20240;-78
2022/05/03 03:45:37;;;;;;;3.43;2.77;;;;;;;9.38;82.44;94592.25;5102527;28;20169;-77
2022/05/03 03:48:04;;;;;;;5.77;3.33;;;;;;;9.30;82.64;94595.13;5098801;28;20200;-77
2022/05/03 03:50:31;;;;;;;3.60;2.90;;;;;;;9.39;83.13;94595.69;5099841;28;20541;-78
2022/05/03 03:52:57;;;;;;;6.10;3.40;;;;;;;9.38;83.24;94608.00;5103407;28;20198;-77
2022/05/03 03:55:24;;;;;;;4.23;3.10;;;;;;;9.38;83.79;94608.00;5103307;28;20201;-77
2022/05/03 03:57:50;;;;;;;3.60;2.87;;;;;;;9.36;83.25;94607.41;5102751;28;20557;-78
2022/05/03 04:00:17;;;;;;;7.13;3.90;;;;;;;9.27;83.53;94599.97;5101727;28;20262;-77
2022/05/03 04:02:44;;;;;;;4.53;3.33;;;;;;;9.33;83.83;94607.84;5103094;28;20196;-77
2022/05/03 04:05:19;;;;;;;5.20;3.20;;;;;;;9.35;83.65;94597.09;5099880;28;20173;-77
2022/05/03 04:07:45;;;;;;;3.80;3.40;;;;;;;9.45;83.68;94611.41;5102831;28;20211;-77
2022/05/03 04:10:10;;;;;;;3.43;3.10;;;;;;;9.35;84.02;94611.03;5099994;28;20216;-77
2022/05/03 04:12:36;;;;;;;4.00;3.17;;;;;;;9.37;84.78;94609.03;5102798;28;20256;-77
2022/05/03 04:15:02;;;;;;;6.60;3.40;;;;;;;9.35;85.52;94605.78;5103566;28;20181;-77
2022/05/03 04:17:28;;;;;;;4.60;3.40;;;;;;;9.47;85.54;94605.94;5106902;28;20553;-78
2022/05/03 04:19:53;;;;;;;4.23;3.77;;;;;;;9.54;85.08;94611.16;5100758;28;20256;-77
2022/05/03 04:22:27;;;;;;;4.47;3.57;;;;;;;9.49;84.84;94584.72;5107953;28;20258;-78
2022/05/03 04:24:52;;;;;;;4.00;3.37;;;;;;;9.67;84.19;94613.72;5110606;28;20226;-78
2022/05/03 04:27:20;;;;;;;4.50;3.27;;;;;;;9.60;84.90;94621.63;5102813;28;20181;-77
2022/05/03 04:29:46;;;;;;;4.40;3.40;;;;;;;9.72;84.51;94612.06;5100010;28;20244;-78
2022/05/03 04:32:11;;;;;;;4.00;3.37;;;;;;;9.89;83.25;94622.88;5095864;28;20622;-78
2022/05/03 04:34:36;;;;;;;4.63;3.63;;;;;;;9.79;83.59;94623.34;5102601;28;20187;-78
2022/05/03 04:37:02;;;;;;;6.23;3.47;;;;;;;9.84;83.37;94625.34;5108384;28;20177;-77
2022/05/03 04:39:28;;;;;;;3.67;2.87;;;;;;;9.62;83.62;94626.69;5106227;28;20180;-77
2022/05/03 04:41:53;;;;;;;3.97;3.10;;;;;;;9.54;84.10;94613.78;5094846;28;20200;-78
2022/05/03 04:44:19;;;;;;;3.37;2.97;;;;;;;9.57;83.26;94623.88;5102542;28;20187;-80
2022/05/03 04:46:44;;;;;;;3.57;2.90;;;;;;;9.57;82.42;94621.25;5102202;28;20200;-80
2022/05/03 04:49:10;;;;;;;3.33;3.00;;;;;;;9.64;82.14;94624.66;5102620;28;20182;-79
2022/05/03 04:51:35;;;;;;;5.07;3.20;;;;;;;9.55;82.98;94623.28;5097876;28;20166;-79
2022/05/03 04:54:01;;;;;;;3.97;3.53;;;;;;;9.64;82.57;94628.09;5097236;28;20179;-79
2022/05/03 04:56:27;;;;;;;4.87;3.10;;;;;;;9.61;82.47;94602.22;5101963;28;20615;-79
2022/05/03 04:58:56;;;;;;;4.97;3.37;;;;;;;9.92;80.29;94632.19;5102177;28;20230;-79
2022/05/03 05:01:22;;;;;;;5.30;2.57;;;;;;;9.66;77.93;94622.63;5102743;28;20273;-79
2022/05/03 05:03:48;;;;;;;2.53;2.33;;;;;;;9.80;77.11;94624.16;5094233;28;20575;-79
2022/05/03 05:06:14;;;;;;;3.50;2.30;;;;;;;9.60;77.19;94597.97;5100816;28;20314;-79
2022/05/03 05:08:42;;;;;;;3.40;2.77;;;;;;;9.76;78.18;94623.78;5108494;28;20227;-79
2022/05/03 05:11:08;;;;;;;3.13;2.73;;;;;;;9.79;77.96;94633.84;5102136;28;20196;-79
2022/05/03 05:13:35;;;;;;;7.17;2.67;;;;;;;9.85;77.42;94626.97;5108950;28;20181;-79
2022/05/03 05:16:00;;;;;;;3.67;2.67;;;;;;;9.77;77.23;94608.81;5105812;28;20177;-79
2022/05/03 05:18:27;;;;;;;3.60;2.43;;;;;;;9.70;77.81;94611.47;5103583;28;20173;-79
2022/05/03 05:20:53;;;;;;;2.70;2.37;;;;;;;9.75;76.87;94632.69;5103213;28;20172;-79
2022/05/03 05:23:19;;;;;;;5.17;3.13;;;;;;;9.49;76.91;94582.09;5101793;28;20596;-79
2022/05/03 05:25:46;;;;;;;3.70;3.00;;;;;;;9.70;77.71;94629.88;5102836;28;20256;-79
2022/05/03 05:28:13;;;;;;;2.50;2.30;;;;;;;9.56;78.11;94617.81;5104642;28;20185;-78
2022/05/03 05:30:38;;;;;;;3.30;2.47;;;;;;;9.64;78.01;94624.66;5095814;28;20241;-79
2022/05/03 05:33:04;;;;;;;4.03;2.80;;;;;;;9.66;77.88;94636.56;5098762;28;20173;-79
2022/05/03 05:35:29;;;;;;;2.87;2.60;;;;;;;9.82;76.22;94630.00;5097414;28;20197;-78
2022/05/03 05:37:55;;;;;;;3.10;2.10;;;;;;;9.98;75.42;94637.38;5100094;28;20222;-80
2022/05/03 05:40:20;;;;;;;4.40;2.63;;;;;;;10.23;75.17;94605.06;5106312;28;20185;-82
2022/05/03 05:42:46;;;;;;;2.20;2.00;;;;;;;10.60;72.16;94580.47;5105112;28;20467;-80
2022/05/03 05:45:11;;;;;;;4.80;2.13;;;;;;;11.11;70.30;94632.00;5105757;28;20214;-80
2022/05/03 05:47:37;;;;;;;3.83;2.23;;;;;;;10.83;71.32;94643.00;5105633;28;20176;-80
2022/05/03 05:50:02;;;;;;;4.37;2.30;;;;;;;10.67;71.56;94631.22;5103710;28;20182;-80
2022/05/03 05:55:12;;;;;;;2.67;2.33;;;;;;;11.14;70.84;94652.66;5105772;28;20205;-80
2022/05/03 05:57:37;;;;;;;2.93;2.40;;;;;;;11.34;69.05;94646.09;5106183;28;20186;-79
2022/05/03 06:00:03;;;;;;;3.90;2.00;;;;;;;11.92;67.43;94660.66;5095321;28;20181;-80
2022/05/03 06:02:29;;;;;;;3.70;2.20;;;;;;;12.03;66.46;94665.16;5103657;28;20204;-81
2022/05/03 06:04:54;;;;;;;2.57;1.90;;;;;;;12.08;64.37;94636.28;5102424;28;20174;-80
2022/05/03 06:07:20;;;;;;;139.27;8.93;;;;;;;12.18;64.26;94659.47;5105058;28;20173;-80
2022/05/03 06:09:45;;;;;;;218.67;28.90;;;;;;;12.10;65.15;94636.84;5104848;28;20176;-81
2022/05/03 06:12:11;;;;;;;552.43;42.87;;;;;;;12.20;63.91;94674.03;5106867;28;20173;-80
2022/05/03 06:14:36;;;;;;;2.53;2.33;;;;;;;11.86;64.37;94683.44;5107812;28;20173;-80
2022/05/03 06:17:02;;;;;;;180.20;18.17;;;;;;;11.45;64.72;94685.94;5102139;28;21013;-81
2022/05/03 06:19:28;;;;;;;11.40;3.30;;;;;;;11.33;66.38;94685.84;5105735;28;20571;-80
2022/05/03 06:21:54;;;;;;;42.80;4.00;;;;;;;11.03;67.24;94677.88;5101072;28;20197;-82
2022/05/03 06:24:19;;;;;;;176.30;12.33;;;;;;;10.58;68.09;94679.88;5103496;28;20173;-80
2022/05/03 06:26:45;;;;;;;997.87;83.20;;;;;;;10.45;68.79;94674.75;5103182;28;20176;-80
2022/05/03 06:29:10;;;;;;;1297.57;129.70;;;;;;;10.52;68.12;94649.16;5105800;28;20187;-80
2022/05/03 06:31:36;;;;;;;471.03;79.93;;;;;;;10.86;68.27;94675.00;5101272;28;20248;-81
2022/05/03 06:34:03;;;;;;;573.20;103.13;;;;;;;11.02;68.22;94663.09;5101233;28;20209;-80
2022/05/03 06:36:28;;;;;;;1854.67;170.17;;;;;;;11.30;67.96;94670.50;5103495;28;20162;-80
2022/05/03 06:38:54;;;;;;;1486.23;127.43;;;;;;;11.02;66.85;94635.94;5110914;28;20185;-80
2022/05/03 06:41:19;;;;;;;743.10;112.23;;;;;;;11.44;66.75;94669.31;5104122;28;20575;-81
2022/05/03 06:43:45;;;;;;;1538.67;193.40;;;;;;;11.59;67.50;94650.47;5105444;28;20633;-81
2022/05/03 06:46:11;;;;;;;92.80;18.77;;;;;;;12.08;66.09;94695.13;5105830;28;20534;-81
2022/05/03 06:48:37;;;;;;;455.97;40.83;;;;;;;11.75;66.00;94647.28;5107134;28;20264;-81
2022/05/03 06:51:03;;;;;;;93.20;13.40;;;;;;;12.15;66.55;94695.03;5097996;28;20710;-80
2022/05/03 06:53:29;;;;;;;318.60;24.17;;;;;;;12.20;65.70;94702.25;5102167;28;20180;-79
2022/05/03 06:55:54;;;;;;;84.67;8.27;;;;;;;11.80;66.35;94701.97;5101042;28;20196;-79
2022/05/03 06:58:20;;;;;;;49.27;4.57;;;;;;;11.54;67.49;94690.69;5101164;28;20847;-80
2022/05/03 07:00:46;;;;;;;77.93;15.43;;;;;;;11.23;68.14;94653.97;5103851;28;20185;-79
2022/05/03 07:03:12;;;;;;;59.40;8.70;;;;;;;11.42;69.43;94707.44;5101707;28;20246;-80
2022/05/03 07:05:39;;;;;;;346.20;37.30;;;;;;;11.28;69.46;94712.88;5102996;28;20203;-79
2022/05/03 07:08:04;;;;;;;1940.50;542.47;;;;;;;11.38;69.80;94715.00;5100504;28;20181;-79
2022/05/03 07:10:30;;;;;;;1999.90;552.83;;;;;;;11.18;69.69;94686.22;5104780;28;20624;-79
2022/05/03 07:12:56;;;;;;;1338.17;398.97;;;;;;;11.21;69.95;94685.00;5099111;28;20199;-79
2022/05/03 07:15:24;;;;;;;1893.87;716.33;;;;;;;11.24;69.38;94703.00;5105289;28;20235;-80
2022/05/03 07:23:18;;;;;;;353.63;35.37;;;;;;;11.19;70.21;94689.66;5103290;28;20212;-79
2022/05/03 07:25:47;;;;;;;126.57;25.70;;;;;;;11.24;70.51;94706.41;5102936;28;20178;-79
2022/05/03 07:28:12;;;;;;;3.70;2.40;;;;;;;11.41;70.34;94706.69;5114242;27;20174;-79
2022/05/03 07:30:38;;;;;;;3.23;2.37;;;;;;;11.49;70.59;94695.03;5097229;28;20237;-80
2022/05/03 07:33:04;;;;;;;3.47;2.50;;;;;;;11.64;70.66;94695.47;5101542;28;20217;-79
2022/05/03 07:35:30;;;;;;;4.20;2.63;;;;;;;11.85;70.04;94699.50;5094603;28;20542;-80
2022/05/03 07:37:56;;;;;;;147.53;18.30;;;;;;;11.75;69.71;94672.84;5097040;28;20181;-80
2022/05/03 07:40:22;;;;;;;366.50;38.83;;;;;;;11.72;70.04;94706.50;5097820;28;20286;-79
2022/05/03 07:42:47;;;;;;;43.20;9.13;;;;;;;11.13;70.71;94661.56;5105226;28;20708;-79
2022/05/03 07:45:15;;;;;;;4.00;2.80;;;;;;;11.42;71.01;94718.81;5106295;27;20169;-79
2022/05/03 07:47:40;;;;;;;5.13;2.97;;;;;;;11.38;71.53;94716.84;5102759;28;20193;-78
2022/05/03 07:50:06;;;;;;;4.50;2.73;;;;;;;11.30;71.94;94710.03;5099964;28;20216;-79
2022/05/03 07:52:32;;;;;;;5.97;3.07;;;;;;;11.43;71.44;94711.69;5100464;28;20314;-79
2022/05/03 07:54:58;;;;;;;3.90;2.67;;;;;;;11.44;71.90;94719.41;5101272;28;21001;-78
2022/05/03 07:57:24;;;;;;;5.97;3.00;;;;;;;11.28;71.95;94715.50;5098711;28;20259;-78
2022/05/03 07:59:54;;;;;;;3.10;2.63;;;;;;;11.26;72.09;94714.91;5099103;28;20256;-79
2022/05/03 08:02:21;;;;;;;3.20;2.90;;;;;;;11.08;73.07;94701.72;5104188;28;20197;-77
2022/05/03 08:04:48;;;;;;;4.67;3.30;;;;;;;10.88;73.47;94694.03;5103787;28;20234;-78
2022/05/03 08:07:14;;;;;;;4.53;2.87;;;;;;;11.06;73.66;94702.97;5108373;28;20173;-79
2022/05/03 08:09:39;;;;;;;3.03;2.50;;;;;;;11.22;73.06;94713.75;5097516;28;20169;-80
2022/05/03 08:12:05;;;;;;;4.53;2.83;;;;;;;11.10;73.31;94712.03;5102921;28;20227;-83
2022/05/03 08:14:32;;;;;;;5.40;2.73;;;;;;;11.19;73.36;94724.72;5103444;27;20171;-80
2022/05/03 08:16:58;;;;;;;4.83;2.53;;;;;;;11.12;72.82;94707.38;5103768;28;20189;-82
2022/05/03 08:19:24;;;;;;;3.03;2.60;;;;;;;11.31;73.14;94728.25;5104198;28;20184;-81
2022/05/03 08:21:52;;;;;;;3.27;2.67;;;;;;;11.27;72.27;94726.25;5107429;28;20284;-81
2022/05/03 08:24:18;;;;;;;2.47;2.27;;;;;;;11.27;72.15;94748.16;5099560;28;20638;-81
2022/05/03 08:26:44;;;;;;;3.07;2.30;;;;;;;10.93;73.23;94707.34;5098799;28;20189;-80
2022/05/03 08:29:09;;;;;;;2.93;2.23;;;;;;;11.31;73.13;94743.25;5099498;28;20561;-78
2022/05/03 08:31:35;;;;;;;6.67;2.90;;;;;;;11.47;72.51;94741.88;5105019;28;20222;-79
2022/05/03 08:34:02;;;;;;;2.47;2.13;;;;;;;11.62;71.53;94758.13;5099520;28;20176;-79
2022/05/03 08:36:31;;;;;;;3.37;3.07;;;;;;;11.47;71.65;94747.16;5096007;28;20222;-80
2022/05/03 08:42:06;;;;;;;2.60;2.40;;;;;;;11.54;71.47;94753.97;5081005;28;20210;-80
2022/05/03 08:44:33;;;;;;;7.10;2.40;;;;;;;11.61;71.13;94756.53;5095975;28;20669;-79
2022/05/03 08:47:00;;;;;;;2.70;1.87;;;;;;;11.51;71.15;94741.22;5095277;28;20176;-80
2022/05/03 08:50:06;;;;;;;3.40;2.20;;;;;;;11.69;71.10;94762.31;5104414;28;20558;-80
2022/05/03 08:52:38;;;;;;;4.53;2.73;;;;;;;11.70;70.71;94763.94;5093261;28;20239;-80
2022/05/03 08:55:04;;;;;;;2.47;2.00;;;;;;;11.25;71.75;94752.81;5103376;28;20173;-81
2022/05/03 08:57:30;;;;;;;3.70;2.13;;;;;;;11.25;72.82;94747.56;5102267;28;20177;-80
2022/05/03 08:59:57;;;;;;;3.40;2.33;;;;;;;11.47;72.71;94747.97;5111130;28;20200;-79
2022/05/03 09:02:22;;;;;;;3.03;2.10;;;;;;;11.69;70.57;94750.97;5104065;28;20221;-78
2022/05/03 09:04:48;;;;;;;2.70;2.20;;;;;;;11.81;72.23;94727.34;5103295;28;21676;-79
2022/05/03 09:07:24;;;;;;;4.63;2.00;;;;;;;12.06;69.65;94744.66;5106512;28;20172;-79
2022/05/03 09:09:52;;;;;;;2.60;2.40;;;;;;;12.15;68.41;94761.00;5100481;28;20185;-79
2022/05/03 09:12:31;;;;;;;1255.90;189.57;;;;;;;12.03;68.38;94752.22;5099079;28;20173;-79
2022/05/03 09:15:00;;;;;;;718.00;84.63;;;;;;;11.87;68.24;94732.53;5094286;28;20170;-80
2022/05/03 09:17:44;;;;;;;694.43;118.33;;;;;;;11.86;67.51;94735.38;5105215;28;20166;-80
2022/05/03 09:25:53;;;;;;;120.60;18.17;;;;;;;11.80;67.87;94681.69;5105033;28;20222;-81
2022/05/03 09:28:21;;;;;;;189.10;28.90;;;;;;;12.47;66.73;94749.19;5098182;28;20185;-80
2022/05/03 09:30:52;;;;;;;87.20;10.97;;;;;;;12.70;66.59;94761.66;5103184;28;20248;-81
2022/05/03 09:33:20;;;;;;;51.53;4.17;;;;;;;12.67;64.54;94753.38;5099612;28;20189;-81
2022/05/03 09:35:46;;;;;;;51.43;5.13;;;;;;;12.96;63.77;94763.09;5106306;28;20589;-81
2022/05/03 09:38:12;;;;;;;2.60;1.83;;;;;;;13.07;62.50;94762.28;5101577;28;20196;-82
2022/05/03 09:40:43;;;;;;;4.03;2.30;;;;;;;13.13;61.04;94757.94;5100737;28;20173;-82
2022/05/03 09:43:09;;;;;;;3.37;3.00;;;;;;;12.95;62.23;94760.69;5102062;28;20296;-82
2022/05/03 09:45:36;;;;;;;5.13;2.03;;;;;;;12.97;66.11;94748.06;5102955;28;20188;-80
2022/05/03 09:48:02;;;;;;;21.97;5.03;;;;;;;12.81;64.24;94745.03;5101703;28;20169;-79
2022/05/03 09:50:31;;;;;;;3.63;3.43;;;;;;;12.38;64.10;94755.81;5093773;28;20206;-79
2022/05/03 09:52:57;;;;;;;3.00;1.90;;;;;;;12.13;65.27;94736.66;5099308;28;20177;-79
2022/05/03 09:55:36;;;;;;;55.27;5.57;;;;;;;12.44;65.12;94756.75;5102172;28;20263;-79
2022/05/03 09:58:06;;;;;;;3.73;3.20;;;;;;;12.43;65.33;94729.56;5094333;28;20222;-79
2022/05/03 10:00:33;;;;;;;4.63;2.10;;;;;;;12.68;63.50;94744.44;5100283;28;20185;-80
2022/05/03 10:03:04;;;;;;;2.80;2.13;;;;;;;12.96;64.57;94741.16;5102045;28;20581;-80
2022/05/03 10:05:30;;;;;;;5.13;3.90;;;;;;;13.01;63.30;94713.00;5096159;28;20693;-82
2022/05/03 10:07:56;;;;;;;2.57;2.37;;;;;;;12.99;63.94;94735.41;5104053;28;20165;-82
2022/05/03 10:10:23;;;;;;;3.00;1.97;;;;;;;13.11;63.53;94752.88;5102468;28;20662;-82
2022/05/03 10:12:50;;;;;;;6.40;2.17;;;;;;;12.89;63.43;94740.44;5101448;28;20177;-83
2022/05/03 10:21:02;;;;;;;8.70;2.00;;;;;;;12.94;61.39;94736.09;5102095;28;20680;-82
2022/05/03 10:23:33;;;;;;;2.40;1.87;;;;;;;13.10;63.08;94743.34;5091689;28;20291;-82
2022/05/03 10:26:05;;;;;;;1.90;1.80;;;;;;;12.98;61.65;94744.34;5106255;28;20593;-82
2022/05/03 10:29:09;;;;;;;4.43;1.80;;;;;;;12.80;61.14;94732.03;5093917;28;20184;-82
2022/05/03 10:32:17;;;;;;;2.87;2.20;;;;;;;12.62;63.09;94737.41;5094961;27;20289;-83
2022/05/03 10:34:59;;;;;;;2.03;1.80;;;;;;;12.62;64.25;94732.13;5089481;28;20188;-83
2022/05/03 10:37:35;;;;;;;12.00;3.50;;;;;;;12.62;65.01;94726.84;5090660;28;20207;-83
2022/05/03 10:40:13;;;;;;;3.07;1.60;;;;;;;12.52;64.15;94726.59;5103629;28;20177;-82
2022/05/03 10:42:39;;;;;;;3.03;1.70;;;;;;;12.25;64.35;94729.59;5095150;28;20228;-82
2022/05/03 10:45:09;;;;;;;2.77;1.70;;;;;;;12.32;64.38;94737.44;5102481;28;20655;-83
2022/05/03 10:47:54;;;;;;;2.70;1.87;;;;;;;12.31;64.05;94743.72;5096785;28;20230;-83
2022/05/03 10:50:30;;;;;;;3.20;1.77;;;;;;;12.30;63.56;94742.13;5108794;28;20588;-82
2022/05/03 10:52:56;;;;;;;3.27;1.30;;;;;;;12.33;64.65;94731.94;5111925;28;20642;-83
2022/05/03 10:55:22;;;;;;;1.80;1.70;;;;;;;12.59;63.56;94743.16;5111443;28;20169;-82
2022/05/03 10:58:19;;;;;;;1.70;1.60;;;;;;;12.78;62.93;94745.50;5092099;28;20640;-83
2022/05/03 11:01:11;;;;;;;2.57;1.77;;;;;;;12.71;62.02;94699.09;5101588;28;20177;-83
2022/05/03 11:03:41;;;;;;;1.97;1.77;;;;;;;12.84;61.63;94730.56;5103949;28;20184;-83
2022/05/03 11:06:18;;;;;;;2.87;1.67;;;;;;;12.94;60.96;94741.38;5090061;28;20181;-82
2022/05/03 11:11:43;;;;;;;5.73;2.37;;;;;;;12.98;61.42;94731.13;5096964;28;20190;-83
2022/05/03 11:14:18;;;;;;;2.07;1.57;;;;;;;13.01;61.54;94733.34;5100753;28;20187;-83
2022/05/03 11:17:05;;;;;;;3.07;1.73;;;;;;;13.24;64.27;94720.16;5100898;28;20177;-82
2022/05/03 11:19:52;;;;;;;6.23;1.77;;;;;;;13.29;60.48;94715.00;5098062;28;20169;-83
2022/05/03 11:22:20;;;;;;;3.87;1.80;;;;;;;13.52;60.45;94736.13;5097123;28;20193;-81
2022/05/03 11:24:52;;;;;;;4.13;1.83;;;;;;;13.11;60.06;94705.31;5103308;28;20184;-81
2022/05/03 11:27:19;;;;;;;2.03;1.50;;;;;;;13.37;59.86;94730.50;5097237;28;20173;-80
2022/05/03 11:29:47;;;;;;;2.03;1.60;;;;;;;13.28;59.45;94702.00;5099316;28;20231;-80
2022/05/03 11:32:15;;;;;;;3.13;1.93;;;;;;;13.48;59.39;94731.53;5098286;28;20193;-81
2022/05/03 11:34:42;;;;;;;4.03;1.83;;;;;;;13.39;59.41;94727.63;5099965;28;20193;-80
2022/05/03 11:37:08;;;;;;;3.73;1.40;;;;;;;13.18;59.35;94694.66;5106578;28;20187;-81
2022/05/03 11:39:36;;;;;;;2.33;1.80;;;;;;;13.36;58.90;94725.44;5098071;28;20170;-81
2022/05/03 11:42:05;;;;;;;2.63;1.80;;;;;;;13.15;58.91;94680.03;5102895;27;20229;-81
2022/05/03 11:44:30;;;;;;;1.83;1.70;;;;;;;13.46;57.81;94715.09;5099442;28;20174;-81
2022/05/03 11:47:01;;;;;;;1.47;1.37;;;;;;;13.54;58.02;94718.19;5103282;28;20181;-81
2022/05/03 11:49:27;;;;;;;1.70;1.60;;;;;;;13.46;56.21;94715.09;5099633;28;21601;-80
2022/05/03 11:57:28;;;;;;;1.60;1.50;;;;;;;13.59;58.17;94720.13;5101234;28;20554;-81
2022/05/03 11:59:56;;;;;;;3.00;1.77;;;;;;;13.54;58.02;94710.25;5098822;28;20196;-81
2022/05/03 12:02:29;;;;;;;3.00;1.63;;;;;;;13.38;58.53;94665.22;5102809;28;20188;-81
2022/05/03 12:05:04;;;;;;;1.50;1.40;;;;;;;13.53;58.61;94710.47;5104654;28;20318;-81
2022/05/03 12:07:41;;;;;;;2.07;1.87;;;;;;;13.54;58.55;94702.31;5098387;28;20726;-81
2022/05/03 12:10:24;;;;;;;7.27;1.83;;;;;;;13.83;58.48;94705.84;5099162;28;20302;-80
2022/05/03 12:13:12;;;;;;;1.93;1.60;;;;;;;14.00;57.57;94695.31;5100024;28;20173;-80
2022/05/03 12:15:42;;;;;;;2.60;1.67;;;;;;;13.84;57.20;94699.47;5101246;28;20169;-80
2022/05/03 12:18:19;;;;;;;2.57;1.43;;;;;;;13.60;56.63;94671.47;5095099;28;20174;-80
2022/05/03 12:20:56;;;;;;;2.30;1.50;;;;;;;13.48;57.10;94710.38;5093738;28;20184;-81
2022/05/03 12:23:32;;;;;;;2.67;1.70;;;;;;;13.22;57.61;94703.75;5094653;28;20190;-80
2022/05/03 12:25:59;;;;;;;1.30;1.20;;;;;;;13.23;58.31;94709.84;5100037;28;20210;-80